^^
Grace C. Lehan Memorial Weather Station Historical Data
Daily Summary for March 29, 2021 Units:  Metric    English   Both
Daily Weekly Monthly Yearly
  High: Low: Average:
Temperature: 19.2 °C 9.6 °C 13.5 °C
Dew Point: 12.6 °C 7.9 °C 9.9 °C
Humidity: 94% 56% 80%
Wind Speed: 5.3km/h 0km/h 0.6km/h
Wind Gust: 16.1km/h - -
Wind- - SE
Pressure: 1014.1 hPa 1010.4 hPa -
Precipitation: 0 mm    
 
 
Tabular Data for March 29, 2021
Time Temperature Dew Point Pressure Wind Wind Speed Wind Gust Humidity Rainfall Rate (Hourly) solar
00:00 13.8 °C 12.5 °C 1010.4 hPa Calm   9.7 km/h 92% 0 mm 0 W/m2
00:09 13.7 °C 12.4 °C 1010.7 hPa Calm     92% 0 mm 0 W/m2
00:14 13.7 °C 12.4 °C 1010.7 hPa Calm     92% 0 mm 0 W/m2
00:19 13.6 °C 12.4 °C 1011.1 hPa Calm     92.4% 0 mm 0 W/m2
00:24 13.6 °C 12.5 °C 1011.1 hPa Calm     93% 0 mm 0 W/m2
00:29 13.6 °C 12.4 °C 1011.1 hPa Calm     93% 0 mm 0 W/m2
00:34 13.5 °C 12.4 °C 1011.1 hPa Calm     92.8% 0 mm 0 W/m2
00:39 13.4 °C 12.3 °C 1011.1 hPa Calm     93% 0 mm 0 W/m2
00:44 13.4 °C 12.3 °C 1011.1 hPa Calm     93% 0 mm 0 W/m2
00:49 13.4 °C 12.3 °C 1011.1 hPa Calm     93% 0 mm 0 W/m2
00:54 13.4 °C 12.4 °C 1011.1 hPa Calm     93.8% 0 mm 0 W/m2
00:59 13.4 °C 12.5 °C 1011.4 hPa Calm     94% 0 mm 0 W/m2
01:04 13.4 °C 12.5 °C 1011.4 hPa Calm     94% 0 mm 0 W/m2
01:09 13.4 °C 12.5 °C 1011.1 hPa Calm     94% 0 mm 0 W/m2
01:14 13.5 °C 12.6 °C 1011.4 hPa Calm     94% 0 mm 0 W/m2
01:19 13.5 °C 12.6 °C 1011.4 hPa North 0.6 km/h 6.4 km/h 94% 0 mm 0 W/m2
01:24 13.5 °C 12.6 °C 1011.4 hPa North 1.9 km/h 11.3 km/h 94% 0 mm 0 W/m2
01:29 13.4 °C 12.4 °C 1011.4 hPa NNW 0.6 km/h 11.3 km/h 94% 0 mm 0 W/m2
01:34 13.3 °C 12.2 °C 1011.4 hPa NE 0.5 km/h 11.3 km/h 93.1% 0 mm 0 W/m2
01:39 13.2 °C 11.9 °C 1011.7 hPa NNW 0.5 km/h 8 km/h 92.2% 0 mm 0 W/m2
01:44 13.2 °C 11.7 °C 1011.7 hPa NNW 0.8 km/h 9.7 km/h 91% 0 mm 0 W/m2
01:49 13.2 °C 11.6 °C 1011.4 hPa Calm   9.7 km/h 90.1% 0 mm 0 W/m2
01:54 13.2 °C 11.6 °C 1011.4 hPa Calm   9.7 km/h 90% 0 mm 0 W/m2
01:59 13.2 °C 11.4 °C 1011.4 hPa Calm   9.7 km/h 89.2% 0 mm 0 W/m2
02:04 13.2 °C 11.4 °C 1011.4 hPa Calm   9.7 km/h 89% 0 mm 0 W/m2
02:09 13.2 °C 11.4 °C 1011.4 hPa NNW 0.2 km/h 3.2 km/h 89% 0 mm 0 W/m2
02:14 13.1 °C 11.1 °C 1011.4 hPa NE 0.6 km/h 8 km/h 88.1% 0 mm 0 W/m2
02:19 12.9 °C 10.9 °C 1011.1 hPa ENE 0.8 km/h 9.7 km/h 87.3% 0 mm 0 W/m2
02:24 12.9 °C 10.8 °C 1011.1 hPa NE 1.3 km/h 9.7 km/h 87% 0 mm 0 W/m2
02:29 12.8 °C 10.7 °C 1011.4 hPa NE 0.3 km/h 9.7 km/h 87% 0 mm 0 W/m2
02:34 12.8 °C 10.7 °C 1011.4 hPa NE 0.2 km/h 9.7 km/h 87% 0 mm 0 W/m2
02:39 12.7 °C 10.6 °C 1011.4 hPa North 0.5 km/h 9.7 km/h 87% 0 mm 0 W/m2
02:44 12.7 °C 10.6 °C 1011.7 hPa North 0.5 km/h 9.7 km/h 87.4% 0 mm 0 W/m2
02:49 12.7 °C 10.7 °C 1011.7 hPa Calm   9.7 km/h 88% 0 mm 0 W/m2
02:54 12.6 °C 10.5 °C 1011.4 hPa NE 1.6 km/h 9.7 km/h 87.3% 0 mm 0 W/m2
02:59 12.6 °C 10.4 °C 1011.4 hPa East 1.6 km/h 9.7 km/h 87% 0 mm 0 W/m2
03:04 12.6 °C 10.4 °C 1011.1 hPa ENE 1.6 km/h 9.7 km/h 87% 0 mm 0 W/m2
03:09 12.5 °C 10.4 °C 1011.1 hPa ENE 0.8 km/h 8 km/h 87% 0 mm 0 W/m2
03:14 12.4 °C 10.3 °C 1011.1 hPa Calm   8 km/h 87% 0 mm 0 W/m2
03:19 12.4 °C 10.3 °C 1011.4 hPa ENE 0.2 km/h 8 km/h 86.5% 0 mm 0 W/m2
03:24 12.4 °C 10.3 °C 1011.4 hPa ENE 0.2 km/h 8 km/h 87% 0 mm 0 W/m2
03:29 12.4 °C 10.3 °C 1011.4 hPa NNE 0.6 km/h 8 km/h 87% 0 mm 0 W/m2
03:34 12.3 °C 10.2 °C 1011.4 hPa NNE 0.5 km/h 8 km/h 87% 0 mm 0 W/m2
03:39 12.3 °C 10.2 °C 1011.4 hPa Calm   4.8 km/h 87% 0 mm 0 W/m2
03:44 12.2 °C 10.2 °C 1011.4 hPa Calm   4.8 km/h 87.3% 0 mm 0 W/m2
03:49 12.2 °C 10.2 °C 1011.4 hPa Calm   4.8 km/h 88% 0 mm 0 W/m2
03:54 12.1 °C 10.2 °C 1011.4 hPa Calm   4.8 km/h 88% 0 mm 0 W/m2
03:59 12 °C 10.1 °C 1011.4 hPa Calm   4.8 km/h 88% 0 mm 0 W/m2
04:00 12 °C 10.1 °C 1011.4 hPa Calm   4.8 km/h 88% 0 mm 0 W/m2
04:09 11.9 °C 10 °C 1011.7 hPa NNE 1 km/h 6.4 km/h 88.1% 0 mm 0 W/m2
04:14 11.8 °C 10.1 °C 1011.7 hPa North 0.5 km/h 6.4 km/h 89% 0 mm 0 W/m2
04:19 11.8 °C 10.1 °C 1011.4 hPa NW 0.2 km/h 6.4 km/h 89% 0 mm 0 W/m2
04:24 11.7 °C 9.8 °C 1011.4 hPa NW 0.8 km/h 8 km/h 88.1% 0 mm 0 W/m2
04:29 11.7 °C 9.7 °C 1011.7 hPa NW 0.3 km/h 8 km/h 88% 0 mm 0 W/m2
04:34 11.6 °C 9.7 °C 1012.1 hPa NW 0.8 km/h 8 km/h 88% 0 mm 0 W/m2
04:39 11.5 °C 9.6 °C 1012.1 hPa Calm   6.4 km/h 88% 0 mm 0 W/m2
04:44 11.4 °C 9.6 °C 1012.1 hPa NNW 1 km/h 9.7 km/h 88% 0 mm 0 W/m2
04:49 11.4 °C 9.4 °C 1012.1 hPa NNW 1.3 km/h 9.7 km/h 88% 0 mm 0 W/m2
04:54 11.3 °C 9.4 °C 1012.4 hPa Calm   9.7 km/h 88% 0 mm 0 W/m2
04:59 11.2 °C 9.3 °C 1012.4 hPa Calm   9.7 km/h 88% 0 mm 0 W/m2
05:04 11.1 °C 9.2 °C 1012.4 hPa Calm   9.7 km/h 88% 0 mm 0 W/m2
05:09 11.1 °C 9.2 °C 1012.4 hPa Calm   1.6 km/h 88% 0 mm 0 W/m2
05:14 11 °C 9.2 °C 1012.1 hPa Calm   1.6 km/h 88.7% 0 mm 0 W/m2
05:19 10.9 °C 9.2 °C 1012.4 hPa Calm   1.6 km/h 89% 0 mm 0 W/m2
05:24 10.8 °C 9.1 °C 1012.4 hPa Calm   1.6 km/h 89% 0 mm 0 W/m2
05:29 10.8 °C 9.1 °C 1012.4 hPa Calm   1.6 km/h 89% 0 mm 0 W/m2
05:34 10.7 °C 8.9 °C 1012.8 hPa Calm   1.6 km/h 89% 0 mm 0 W/m2
05:39 10.6 °C 8.9 °C 1012.8 hPa NNW 0.2 km/h 3.2 km/h 89.2% 0 mm 0 W/m2
05:44 10.6 °C 8.9 °C 1012.8 hPa Calm   3.2 km/h 89.5% 0 mm 0 W/m2
05:49 10.4 °C 8.8 °C 1012.8 hPa Calm   3.2 km/h 89.5% 0 mm 0 W/m2
05:54 10.4 °C 8.7 °C 1012.8 hPa Calm   3.2 km/h 89% 0 mm 0 W/m2
05:59 10.3 °C 8.6 °C 1012.8 hPa Calm   3.2 km/h 89% 0 mm 0 W/m2
06:04 10.2 °C 8.4 °C 1012.8 hPa NNW 0.3 km/h 3.2 km/h 88.9% 0 mm 0 W/m2
06:09 10.2 °C 8.3 °C 1012.8 hPa NNW 0.2 km/h 4.8 km/h 88% 0 mm 0 W/m2
06:14 10.1 °C 8.2 °C 1012.8 hPa Calm   4.8 km/h 88% 0 mm 0 W/m2
06:19 10.1 °C 8.2 °C 1012.8 hPa Calm   4.8 km/h 88% 0 mm 0 W/m2
06:24 10.1 °C 8.1 °C 1012.8 hPa Calm   4.8 km/h 87% 0 mm 0 W/m2
06:29 10.1 °C 8 °C 1012.8 hPa Calm   4.8 km/h 87% 0 mm 0 W/m2
06:34 10.1 °C 8 °C 1012.8 hPa Calm   4.8 km/h 87.1% 0 mm 0 W/m2
06:39 10.1 °C 8.2 °C 1012.8 hPa Calm     88% 0 mm 0 W/m2
06:44 10 °C 8.1 °C 1013.1 hPa Calm     88% 0 mm 0 W/m2
06:49 9.9 °C 8.1 °C 1013.1 hPa Calm     88% 0 mm 0 W/m2
06:54 9.9 °C 8 °C 1013.1 hPa Calm     88% 0 mm 5 W/m2
06:59 9.8 °C 7.9 °C 1013.1 hPa Calm     88% 0 mm 7 W/m2
07:04 9.8 °C 7.9 °C 1013.1 hPa Calm     88.1% 0 mm 7 W/m2
07:09 9.7 °C 8 °C 1013.1 hPa Calm     89% 0 mm 9 W/m2
07:14 9.7 °C 7.9 °C 1013.1 hPa Calm     89% 0 mm 11 W/m2
07:19 9.6 °C 7.9 °C 1013.4 hPa Calm     89% 0 mm 11 W/m2
07:24 9.6 °C 8.1 °C 1013.4 hPa Calm     89.9% 0 mm 12 W/m2
07:29 9.6 °C 8 °C 1013.4 hPa Calm     90% 0 mm 12 W/m2
07:34 9.6 °C 8 °C 1013.4 hPa Calm     90% 0 mm 18 W/m2
07:39 9.6 °C 8 °C 1013.8 hPa Calm     90% 0 mm 14 W/m2
07:44 9.6 °C 8.1 °C 1013.8 hPa Calm     90% 0 mm 16 W/m2
07:49 9.7 °C 8.2 °C 1013.8 hPa Calm     90% 0 mm 16 W/m2
07:54 9.8 °C 8.2 °C 1013.8 hPa NNW 0.3 km/h 4.8 km/h 89.8% 0 mm 30 W/m2
07:59 9.9 °C 8.2 °C 1013.8 hPa Calm   4.8 km/h 89% 0 mm 30 W/m2
08:09 10.2 °C 8.3 °C 1013.8 hPa Calm     88.1% 0 mm 21 W/m2
08:14 10.3 °C 8.4 °C 1013.8 hPa Calm     87.9% 0 mm 39 W/m2
08:19 10.5 °C 8.4 °C 1013.8 hPa Calm     87.2% 0 mm 39 W/m2
08:24 10.7 °C 8.6 °C 1013.8 hPa Calm     86.7% 0 mm 54 W/m2
08:29 10.8 °C 8.6 °C 1013.8 hPa Calm     85.9% 0 mm 25 W/m2
08:34 10.9 °C 8.6 °C 1013.8 hPa Calm     85% 0 mm 28 W/m2
08:39 11.2 °C 8.6 °C 1013.8 hPa Calm   1.6 km/h 84.5% 0 mm 49 W/m2
08:44 11.3 °C 8.5 °C 1013.8 hPa NNE 0.3 km/h 3.2 km/h 82.7% 0 mm 86 W/m2
08:49 11.6 °C 8.6 °C 1013.8 hPa Calm   3.2 km/h 81.9% 0 mm 46 W/m2
08:54 11.8 °C 8.6 °C 1013.8 hPa North 0.2 km/h 6.4 km/h 80.7% 0 mm 54 W/m2
08:59 12.1 °C 8.7 °C 1013.8 hPa Calm   6.4 km/h 79.7% 0 mm 83 W/m2
09:04 12.4 °C 8.8 °C 1013.8 hPa Calm   6.4 km/h 78.8% 0 mm 153 W/m2
09:09 12.7 °C 8.9 °C 1013.8 hPa WNW 1.6 km/h 14.5 km/h 77.8% 0 mm 427 W/m2
09:14 13.4 °C 9.3 °C 1013.8 hPa NW 2.6 km/h 14.5 km/h 76.3% 0 mm 446 W/m2
09:19 14.1 °C 9.4 °C 1013.8 hPa NNW 1.3 km/h 14.5 km/h 73.3% 0 mm 464 W/m2
09:24 14.7 °C 9.7 °C 1013.8 hPa NNW 0.8 km/h 14.5 km/h 71.8% 0 mm 482 W/m2
09:29 15.3 °C 9.7 °C 1013.8 hPa East 0.5 km/h 14.5 km/h 69.5% 0 mm 499 W/m2
09:34 15.7 °C 9.8 °C 1014.1 hPa North 2.7 km/h 14.5 km/h 68.1% 0 mm 512 W/m2
09:39 16.2 °C 10.1 °C 1014.1 hPa NE 0.6 km/h 14.5 km/h 67.3% 0 mm 526 W/m2
09:44 16.6 °C 10.8 °C 1013.8 hPa NNW 0.6 km/h 14.5 km/h 68.7% 0 mm 541 W/m2
09:49 16.9 °C 10.7 °C 1013.8 hPa WNW 0.2 km/h 14.5 km/h 66.5% 0 mm 552 W/m2
09:54 17.2 °C 10.4 °C 1013.8 hPa NE 1.1 km/h 14.5 km/h 64.6% 0 mm 566 W/m2
09:59 17.3 °C 9.8 °C 1013.8 hPa NNW 1.8 km/h 14.5 km/h 61.4% 0 mm 577 W/m2
10:04 17.6 °C 10.7 °C 1013.8 hPa NNE 1 km/h 14.5 km/h 64.3% 0 mm 589 W/m2
10:09 17.8 °C 10.5 °C 1013.8 hPa ENE 1.6 km/h 8 km/h 62.4% 0 mm 596 W/m2
10:14 17.9 °C 10.8 °C 1013.8 hPa NE 0.8 km/h 8 km/h 63.2% 0 mm 608 W/m2
10:19 18 °C 11 °C 1013.8 hPa NE 1.4 km/h 8 km/h 63.6% 0 mm 619 W/m2
10:24 18.1 °C 10.7 °C 1013.8 hPa NE 1 km/h 8 km/h 61.9% 0 mm 629 W/m2
10:29 18.2 °C 10.8 °C 1013.4 hPa North 2.1 km/h 16.1 km/h 62% 0 mm 640 W/m2
10:34 18.3 °C 10.3 °C 1013.4 hPa NNE 1 km/h 16.1 km/h 59.5% 0 mm 650 W/m2
10:39 18.4 °C 11.3 °C 1013.4 hPa North 0.6 km/h 8 km/h 63.1% 0 mm 659 W/m2
10:44 18.8 °C 11.1 °C 1013.4 hPa NW 1.1 km/h 11.3 km/h 60.9% 0 mm 670 W/m2
10:49 18.8 °C 9.8 °C 1013.4 hPa NE 2.4 km/h 11.3 km/h 56% 0 mm 677 W/m2
10:54 18.7 °C 10.2 °C 1013.4 hPa ENE 3.9 km/h 11.3 km/h 57.8% 0 mm 687 W/m2
10:59 18.7 °C 10.3 °C 1013.4 hPa NE 1.9 km/h 11.3 km/h 58.2% 0 mm 694 W/m2
11:04 18.8 °C 10.3 °C 1013.4 hPa ENE 5 km/h 16.1 km/h 57.8% 0 mm 703 W/m2
11:09 18.8 °C 10.4 °C 1013.4 hPa NE 0.3 km/h 16.1 km/h 58% 0 mm 712 W/m2
11:14 19.1 °C 11.2 °C 1013.4 hPa NNE 0.5 km/h 16.1 km/h 60.1% 0 mm 717 W/m2
11:19 19.2 °C 10.3 °C 1013.1 hPa NE 2.7 km/h 16.1 km/h 56.3% 0 mm 721 W/m2
11:24 19.2 °C 10.4 °C 1013.1 hPa ENE 1.8 km/h 16.1 km/h 56.9% 0 mm 577 W/m2
11:29 18.9 °C 10.3 °C 1013.1 hPa ENE 2.1 km/h 16.1 km/h 57.2% 0 mm 684 W/m2
11:34 18.7 °C 10 °C 1013.1 hPa ENE 3.1 km/h 16.1 km/h 57% 0 mm 684 W/m2
11:39 18.4 °C 9.9 °C 1013.1 hPa East 1.3 km/h 14.5 km/h 57.6% 0 mm 475 W/m2
11:44 18.4 °C 10.9 °C 1013.1 hPa NE 1 km/h 14.5 km/h 61.4% 0 mm 475 W/m2
11:49 18.6 °C 10.3 °C 1013.1 hPa NNE 0.5 km/h 14.5 km/h 58.8% 0 mm 181 W/m2
11:54 18.6 °C 10 °C 1013.1 hPa NW 0.8 km/h 14.5 km/h 57.4% 0 mm 181 W/m2
11:59 18.4 °C 9.8 °C 1013.1 hPa ENE 2.1 km/h 14.5 km/h 57.4% 0 mm 225 W/m2
12:00 18.3 °C 9.4 °C 1013.1 hPa ESE 4.8 km/h 14.5 km/h 56% 0 mm 156 W/m2
12:09 18.2 °C 9.7 °C 1013.1 hPa ENE 3.7 km/h 11.3 km/h 57.5% 0 mm 188 W/m2
12:14 18.3 °C 9.7 °C 1013.1 hPa NE 5.3 km/h 11.3 km/h 57.5% 0 mm 246 W/m2
12:19 18.3 °C 9.6 °C 1013.1 hPa ENE 1.9 km/h 11.3 km/h 56.6% 0 mm 267 W/m2
12:24 18.2 °C 9.8 °C 1013.1 hPa Calm   11.3 km/h 57.8% 0 mm 174 W/m2
12:29 18.1 °C 9.9 °C 1012.8 hPa NE 1.1 km/h 11.3 km/h 58.6% 0 mm 220 W/m2
12:34 18.1 °C 9.5 °C 1012.8 hPa East 2.1 km/h 11.3 km/h 57.3% 0 mm 139 W/m2
12:39 18.1 °C 10.2 °C 1012.8 hPa ENE 0.6 km/h 11.3 km/h 59.8% 0 mm 199 W/m2
12:44 18.2 °C 10.3 °C 1012.8 hPa ENE 0.6 km/h 11.3 km/h 59.8% 0 mm 213 W/m2
12:49 18.3 °C 9.7 °C 1012.8 hPa NE 1 km/h 11.3 km/h 57.5% 0 mm 120 W/m2
12:54 18.3 °C 9.5 °C 1012.8 hPa ENE 1.9 km/h 11.3 km/h 56.6% 0 mm 130 W/m2
12:59 18.2 °C 9.4 °C 1012.8 hPa ENE 0.8 km/h 11.3 km/h 56.8% 0 mm 171 W/m2
Hartford County Weather
Compliments of Weather Underground - 4 mb